Pagina principală
METAR-TAF:

METAR-TAF

Aeroporturi :

Dalcahue, Chile

Latitudine: 42-20-25S, longitudine: 073-42-56W, elevație: 161 m

Observații meteo curente

Raportul a fost făcut în urmă cu 14 de minute, la 04:00 UTC
Vânt 6 kt de la Sud
Temperatură 8°C
Umiditate 87%
Presiune 1018 hPa
Vizibilitate de 10 km sau mai mult
nu există nori sub 1.500 m și nici cumulonimbus

METAR: SCPQ 140400Z AUTO 18006KT CAVOK 08/06 Q1018

Ora: 00:14 (04:14 UTC)


TAF: lipsă

Observații și prognoze meteo pentru peste 4.000 de aeroporturi (rapoarte METAR și TAF).

Stațiile disponibile sunt reprezentate pe hartă prin puncte galbene și roșii.

Țineți indicatorul mouse-ului pe punctul dorit pentru a vedea denumirea stației.

Apoi, faceți clic pentru a vedea observațiile și prognozele meteorologice.

Pentru a schimba harta: Pentru mărire, faceți clic pe butoanele verzi cu cruce neagră; pentru micșorare, pe butonul verde cu o liniuță; pentru hărți învecinate, pe săgețile verzi.


METAR-TAF: